sensor_id;sensor_type;location;lat;lon;timestamp;P1;durP1;ratioP1;P2;durP2;ratioP2
77402;SDS011;66472;53.046;8.656;2023-03-24T00:04:36;35.37;;;32.83;;
77402;SDS011;66472;53.046;8.656;2023-03-24T00:09:33;41.37;;;38.90;;
77402;SDS011;66472;53.046;8.656;2023-03-24T00:14:28;42.13;;;39.37;;
77402;SDS011;66472;53.046;8.656;2023-03-24T00:19:24;41.53;;;38.90;;
77402;SDS011;66472;53.046;8.656;2023-03-24T00:24:20;41.37;;;39.03;;
77402;SDS011;66472;53.046;8.656;2023-03-24T00:29:15;49.13;;;46.07;;
77402;SDS011;66472;53.046;8.656;2023-03-24T00:34:10;50.60;;;47.43;;
77402;SDS011;66472;53.046;8.656;2023-03-24T00:39:07;53.43;;;50.30;;
77402;SDS011;66472;53.046;8.656;2023-03-24T00:44:02;49.90;;;46.80;;
77402;SDS011;66472;53.046;8.656;2023-03-24T00:49:01;52.50;;;49.13;;
77402;SDS011;66472;53.046;8.656;2023-03-24T00:53:56;51.63;;;48.53;;
77402;SDS011;66472;53.046;8.656;2023-03-24T00:58:53;57.10;;;53.47;;
77402;SDS011;66472;53.046;8.656;2023-03-24T01:03:52;54.13;;;51.03;;
77402;SDS011;66472;53.046;8.656;2023-03-24T01:08:48;55.97;;;52.87;;
77402;SDS011;66472;53.046;8.656;2023-03-24T01:13:44;59.73;;;56.23;;
77402;SDS011;66472;53.046;8.656;2023-03-24T01:18:40;62.83;;;59.27;;
77402;SDS011;66472;53.046;8.656;2023-03-24T01:23:36;68.57;;;64.73;;
77402;SDS011;66472;53.046;8.656;2023-03-24T01:28:32;66.07;;;61.80;;
77402;SDS011;66472;53.046;8.656;2023-03-24T01:33:27;66.73;;;62.83;;
77402;SDS011;66472;53.046;8.656;2023-03-24T01:38:23;73.83;;;69.20;;
77402;SDS011;66472;53.046;8.656;2023-03-24T01:43:22;79.23;;;74.53;;
77402;SDS011;66472;53.046;8.656;2023-03-24T01:48:23;81.90;;;77.10;;
77402;SDS011;66472;53.046;8.656;2023-03-24T01:53:19;81.67;;;77.07;;
77402;SDS011;66472;53.046;8.656;2023-03-24T01:58:15;80.70;;;76.07;;
77402;SDS011;66472;53.046;8.656;2023-03-24T02:03:35;78.30;;;73.73;;
77402;SDS011;66472;53.046;8.656;2023-03-24T02:08:35;83.47;;;78.77;;
77402;SDS011;66472;53.046;8.656;2023-03-24T02:13:32;89.73;;;84.80;;
77402;SDS011;66472;53.046;8.656;2023-03-24T02:18:31;93.40;;;87.70;;
77402;SDS011;66472;53.046;8.656;2023-03-24T02:23:39;88.60;;;83.63;;
77402;SDS011;66472;53.046;8.656;2023-03-24T02:39:35;93.93;;;88.53;;
77402;SDS011;66472;53.046;8.656;2023-03-24T02:55:05;92.73;;;87.47;;
77402;SDS011;66472;53.046;8.656;2023-03-24T03:00:10;87.97;;;82.90;;
77402;SDS011;66472;53.046;8.656;2023-03-24T03:05:42;88.73;;;84.00;;
77402;SDS011;66472;53.046;8.656;2023-03-24T03:10:49;86.33;;;81.53;;
77402;SDS011;66472;53.046;8.656;2023-03-24T03:15:57;90.93;;;86.07;;
77402;SDS011;66472;53.046;8.656;2023-03-24T03:21:10;90.80;;;85.57;;
77402;SDS011;66472;53.046;8.656;2023-03-24T03:26:31;90.30;;;85.27;;
77402;SDS011;66472;53.046;8.656;2023-03-24T03:31:34;97.20;;;91.77;;
77402;SDS011;66472;53.046;8.656;2023-03-24T03:36:43;95.67;;;90.27;;
77402;SDS011;66472;53.046;8.656;2023-03-24T03:41:54;99.40;;;93.83;;
77402;SDS011;66472;53.046;8.656;2023-03-24T03:46:59;97.77;;;92.47;;
77402;SDS011;66472;53.046;8.656;2023-03-24T03:52:05;89.13;;;84.33;;
77402;SDS011;66472;53.046;8.656;2023-03-24T03:57:01;93.43;;;88.30;;
77402;SDS011;66472;53.046;8.656;2023-03-24T04:02:22;100.37;;;95.00;;
77402;SDS011;66472;53.046;8.656;2023-03-24T04:07:46;100.83;;;95.43;;
77402;SDS011;66472;53.046;8.656;2023-03-24T04:18:49;94.60;;;89.23;;
77402;SDS011;66472;53.046;8.656;2023-03-24T04:35:11;93.57;;;88.33;;
77402;SDS011;66472;53.046;8.656;2023-03-24T04:41:09;94.37;;;89.07;;
77402;SDS011;66472;53.046;8.656;2023-03-24T04:46:12;98.03;;;92.80;;
77402;SDS011;66472;53.046;8.656;2023-03-24T04:51:22;94.13;;;89.07;;
77402;SDS011;66472;53.046;8.656;2023-03-24T05:02:06;97.27;;;92.07;;
77402;SDS011;66472;53.046;8.656;2023-03-24T05:12:53;103.60;;;97.93;;
77402;SDS011;66472;53.046;8.656;2023-03-24T05:18:00;101.33;;;95.73;;
77402;SDS011;66472;53.046;8.656;2023-03-24T05:23:02;106.07;;;100.27;;
77402;SDS011;66472;53.046;8.656;2023-03-24T05:28:01;99.33;;;93.97;;
77402;SDS011;66472;53.046;8.656;2023-03-24T05:33:00;97.90;;;92.57;;
77402;SDS011;66472;53.046;8.656;2023-03-24T05:38:04;106.03;;;100.17;;
77402;SDS011;66472;53.046;8.656;2023-03-24T05:43:00;111.27;;;105.23;;
77402;SDS011;66472;53.046;8.656;2023-03-24T05:48:07;100.43;;;95.00;;
77402;SDS011;66472;53.046;8.656;2023-03-24T05:53:21;100.70;;;95.40;;
77402;SDS011;66472;53.046;8.656;2023-03-24T05:58:41;90.03;;;85.30;;
77402;SDS011;66472;53.046;8.656;2023-03-24T06:03:41;44.27;;;41.87;;
77402;SDS011;66472;53.046;8.656;2023-03-24T06:08:40;34.43;;;32.63;;
77402;SDS011;66472;53.046;8.656;2023-03-24T06:13:41;31.13;;;29.23;;
77402;SDS011;66472;53.046;8.656;2023-03-24T06:18:37;20.87;;;19.63;;
77402;SDS011;66472;53.046;8.656;2023-03-24T06:24:00;19.00;;;17.90;;
77402;SDS011;66472;53.046;8.656;2023-03-24T06:28:59;20.83;;;19.43;;
77402;SDS011;66472;53.046;8.656;2023-03-24T06:33:59;17.93;;;16.90;;
77402;SDS011;66472;53.046;8.656;2023-03-24T06:39:01;14.50;;;13.53;;
77402;SDS011;66472;53.046;8.656;2023-03-24T06:43:57;11.53;;;10.73;;
77402;SDS011;66472;53.046;8.656;2023-03-24T06:49:08;12.67;;;11.73;;
77402;SDS011;66472;53.046;8.656;2023-03-24T06:54:09;12.03;;;11.20;;
77402;SDS011;66472;53.046;8.656;2023-03-24T06:59:25;11.67;;;10.83;;
77402;SDS011;66472;53.046;8.656;2023-03-24T07:04:27;12.70;;;11.80;;
77402;SDS011;66472;53.046;8.656;2023-03-24T07:09:47;13.13;;;12.30;;
77402;SDS011;66472;53.046;8.656;2023-03-24T07:15:18;12.73;;;11.73;;
77402;SDS011;66472;53.046;8.656;2023-03-24T07:20:57;16.70;;;15.50;;
77402;SDS011;66472;53.046;8.656;2023-03-24T07:26:00;12.67;;;11.50;;
77402;SDS011;66472;53.046;8.656;2023-03-24T07:31:29;11.77;;;10.93;;
77402;SDS011;66472;53.046;8.656;2023-03-24T07:36:38;14.90;;;10.80;;
77402;SDS011;66472;53.046;8.656;2023-03-24T07:41:45;13.23;;;9.67;;
77402;SDS011;66472;53.046;8.656;2023-03-24T07:46:54;10.37;;;9.63;;
77402;SDS011;66472;53.046;8.656;2023-03-24T07:51:53;12.20;;;9.60;;
77402;SDS011;66472;53.046;8.656;2023-03-24T07:56:53;12.80;;;7.77;;
77402;SDS011;66472;53.046;8.656;2023-03-24T08:01:54;7.90;;;7.03;;
77402;SDS011;66472;53.046;8.656;2023-03-24T08:07:01;13.07;;;8.23;;
77402;SDS011;66472;53.046;8.656;2023-03-24T08:12:11;11.00;;;7.77;;
77402;SDS011;66472;53.046;8.656;2023-03-24T08:22:10;7.00;;;6.37;;
77402;SDS011;66472;53.046;8.656;2023-03-24T08:27:05;11.10;;;7.00;;
77402;SDS011;66472;53.046;8.656;2023-03-24T08:32:01;10.90;;;6.47;;
77402;SDS011;66472;53.046;8.656;2023-03-24T08:36:58;8.03;;;6.53;;
77402;SDS011;66472;53.046;8.656;2023-03-24T08:41:53;7.90;;;5.65;;
77402;SDS011;66472;53.046;8.656;2023-03-24T08:46:49;14.30;;;6.07;;
77402;SDS011;66472;53.046;8.656;2023-03-24T08:51:44;8.00;;;5.83;;
77402;SDS011;66472;53.046;8.656;2023-03-24T08:56:40;7.60;;;6.30;;
77402;SDS011;66472;53.046;8.656;2023-03-24T09:01:35;11.40;;;5.60;;
77402;SDS011;66472;53.046;8.656;2023-03-24T09:06:31;9.83;;;5.60;;
77402;SDS011;66472;53.046;8.656;2023-03-24T09:11:26;8.57;;;5.93;;
77402;SDS011;66472;53.046;8.656;2023-03-24T09:16:22;10.47;;;5.70;;
77402;SDS011;66472;53.046;8.656;2023-03-24T09:21:18;12.37;;;5.77;;
77402;SDS011;66472;53.046;8.656;2023-03-24T09:26:13;8.20;;;6.00;;
77402;SDS011;66472;53.046;8.656;2023-03-24T09:31:09;8.03;;;5.90;;
77402;SDS011;66472;53.046;8.656;2023-03-24T09:36:05;7.57;;;5.97;;
77402;SDS011;66472;53.046;8.656;2023-03-24T09:41:00;6.53;;;5.00;;
77402;SDS011;66472;53.046;8.656;2023-03-24T09:45:57;8.10;;;5.97;;
77402;SDS011;66472;53.046;8.656;2023-03-24T09:50:55;7.67;;;5.60;;
77402;SDS011;66472;53.046;8.656;2023-03-24T09:55:51;4.60;;;4.20;;
77402;SDS011;66472;53.046;8.656;2023-03-24T10:00:47;6.43;;;4.40;;
77402;SDS011;66472;53.046;8.656;2023-03-24T10:16:03;7.53;;;5.03;;
77402;SDS011;66472;53.046;8.656;2023-03-24T10:31:04;7.27;;;4.50;;
77402;SDS011;66472;53.046;8.656;2023-03-24T10:36:16;10.30;;;4.73;;
77402;SDS011;66472;53.046;8.656;2023-03-24T10:41:17;12.60;;;5.60;;
77402;SDS011;66472;53.046;8.656;2023-03-24T10:46:16;12.93;;;4.83;;
77402;SDS011;66472;53.046;8.656;2023-03-24T10:51:22;8.57;;;4.60;;
77402;SDS011;66472;53.046;8.656;2023-03-24T10:56:37;7.23;;;3.90;;
77402;SDS011;66472;53.046;8.656;2023-03-24T11:01:33;10.00;;;4.30;;
77402;SDS011;66472;53.046;8.656;2023-03-24T11:06:31;7.33;;;4.00;;
77402;SDS011;66472;53.046;8.656;2023-03-24T11:11:28;8.27;;;4.40;;
77402;SDS011;66472;53.046;8.656;2023-03-24T11:16:31;5.60;;;3.87;;
77402;SDS011;66472;53.046;8.656;2023-03-24T11:21:34;7.30;;;3.60;;
77402;SDS011;66472;53.046;8.656;2023-03-24T11:26:36;9.77;;;4.30;;
77402;SDS011;66472;53.046;8.656;2023-03-24T11:31:33;7.43;;;4.27;;
77402;SDS011;66472;53.046;8.656;2023-03-24T11:41:40;6.77;;;3.37;;
77402;SDS011;66472;53.046;8.656;2023-03-24T11:46:35;10.67;;;4.10;;
77402;SDS011;66472;53.046;8.656;2023-03-24T11:51:33;11.53;;;4.43;;
77402;SDS011;66472;53.046;8.656;2023-03-24T12:01:26;11.40;;;3.73;;
77402;SDS011;66472;53.046;8.656;2023-03-24T12:22:05;8.83;;;3.87;;
77402;SDS011;66472;53.046;8.656;2023-03-24T12:27:03;5.97;;;3.70;;
77402;SDS011;66472;53.046;8.656;2023-03-24T12:32:04;6.53;;;3.93;;
77402;SDS011;66472;53.046;8.656;2023-03-24T12:42:03;7.23;;;3.83;;
77402;SDS011;66472;53.046;8.656;2023-03-24T12:52:20;7.40;;;4.10;;
77402;SDS011;66472;53.046;8.656;2023-03-24T12:57:21;6.37;;;3.87;;
77402;SDS011;66472;53.046;8.656;2023-03-24T13:02:29;9.83;;;3.67;;
77402;SDS011;66472;53.046;8.656;2023-03-24T13:07:26;9.23;;;3.73;;
77402;SDS011;66472;53.046;8.656;2023-03-24T13:12:26;9.07;;;3.50;;
77402;SDS011;66472;53.046;8.656;2023-03-24T13:17:29;7.00;;;3.60;;
77402;SDS011;66472;53.046;8.656;2023-03-24T13:22:26;7.53;;;3.67;;
77402;SDS011;66472;53.046;8.656;2023-03-24T13:27:24;6.73;;;3.60;;
77402;SDS011;66472;53.046;8.656;2023-03-24T13:37:18;6.53;;;3.80;;
77402;SDS011;66472;53.046;8.656;2023-03-24T13:42:28;8.40;;;3.73;;
77402;SDS011;66472;53.046;8.656;2023-03-24T13:47:23;8.87;;;4.07;;
77402;SDS011;66472;53.046;8.656;2023-03-24T13:52:21;7.20;;;3.63;;
77402;SDS011;66472;53.046;8.656;2023-03-24T13:57:17;6.17;;;3.47;;
77402;SDS011;66472;53.046;8.656;2023-03-24T14:02:22;9.20;;;4.07;;
77402;SDS011;66472;53.046;8.656;2023-03-24T14:07:31;7.73;;;3.60;;
77402;SDS011;66472;53.046;8.656;2023-03-24T14:12:28;6.50;;;3.87;;
77402;SDS011;66472;53.046;8.656;2023-03-24T14:17:23;5.13;;;3.53;;
77402;SDS011;66472;53.046;8.656;2023-03-24T14:22:20;4.73;;;4.10;;
77402;SDS011;66472;53.046;8.656;2023-03-24T14:27:30;4.63;;;3.40;;
77402;SDS011;66472;53.046;8.656;2023-03-24T14:32:26;7.20;;;3.40;;
77402;SDS011;66472;53.046;8.656;2023-03-24T14:37:22;6.07;;;3.50;;
77402;SDS011;66472;53.046;8.656;2023-03-24T14:47:28;7.13;;;3.73;;
77402;SDS011;66472;53.046;8.656;2023-03-24T14:52:31;6.07;;;3.50;;
77402;SDS011;66472;53.046;8.656;2023-03-24T14:57:35;7.07;;;4.20;;
77402;SDS011;66472;53.046;8.656;2023-03-24T15:02:34;6.10;;;3.90;;
77402;SDS011;66472;53.046;8.656;2023-03-24T15:07:31;5.00;;;3.40;;
77402;SDS011;66472;53.046;8.656;2023-03-24T15:12:26;4.00;;;3.47;;
77402;SDS011;66472;53.046;8.656;2023-03-24T15:17:22;4.20;;;3.27;;
77402;SDS011;66472;53.046;8.656;2023-03-24T15:22:18;4.33;;;3.27;;
77402;SDS011;66472;53.046;8.656;2023-03-24T15:27:21;3.67;;;2.90;;
77402;SDS011;66472;53.046;8.656;2023-03-24T15:32:18;6.50;;;3.33;;
77402;SDS011;66472;53.046;8.656;2023-03-24T15:42:16;4.53;;;2.97;;
77402;SDS011;66472;53.046;8.656;2023-03-24T15:57:19;5.83;;;3.47;;
77402;SDS011;66472;53.046;8.656;2023-03-24T16:07:24;9.03;;;3.17;;
77402;SDS011;66472;53.046;8.656;2023-03-24T16:12:23;4.17;;;3.47;;
77402;SDS011;66472;53.046;8.656;2023-03-24T16:17:19;6.33;;;3.73;;
77402;SDS011;66472;53.046;8.656;2023-03-24T16:22:14;5.45;;;3.70;;
77402;SDS011;66472;53.046;8.656;2023-03-24T16:27:10;5.53;;;2.90;;
77402;SDS011;66472;53.046;8.656;2023-03-24T16:32:05;6.13;;;3.63;;
77402;SDS011;66472;53.046;8.656;2023-03-24T16:37:01;7.23;;;3.53;;
77402;SDS011;66472;53.046;8.656;2023-03-24T16:41:56;4.63;;;3.30;;
77402;SDS011;66472;53.046;8.656;2023-03-24T16:46:52;4.07;;;3.67;;
77402;SDS011;66472;53.046;8.656;2023-03-24T16:51:48;5.37;;;3.87;;
77402;SDS011;66472;53.046;8.656;2023-03-24T16:56:43;4.97;;;3.70;;
77402;SDS011;66472;53.046;8.656;2023-03-24T17:01:42;4.30;;;3.90;;
77402;SDS011;66472;53.046;8.656;2023-03-24T17:06:40;5.23;;;4.20;;
77402;SDS011;66472;53.046;8.656;2023-03-24T17:11:37;6.10;;;4.30;;
77402;SDS011;66472;53.046;8.656;2023-03-24T17:16:34;7.20;;;4.70;;
77402;SDS011;66472;53.046;8.656;2023-03-24T17:21:33;8.60;;;5.20;;
77402;SDS011;66472;53.046;8.656;2023-03-24T17:26:31;6.60;;;5.00;;
77402;SDS011;66472;53.046;8.656;2023-03-24T17:31:26;4.85;;;4.40;;
77402;SDS011;66472;53.046;8.656;2023-03-24T17:36:21;7.43;;;4.63;;
77402;SDS011;66472;53.046;8.656;2023-03-24T17:41:17;5.45;;;4.95;;
77402;SDS011;66472;53.046;8.656;2023-03-24T17:46:12;5.53;;;4.47;;
77402;SDS011;66472;53.046;8.656;2023-03-24T17:51:07;4.77;;;4.37;;
77402;SDS011;66472;53.046;8.656;2023-03-24T17:56:03;4.18;;;3.78;;
77402;SDS011;66472;53.046;8.656;2023-03-24T18:01:02;4.50;;;4.10;;
77402;SDS011;66472;53.046;8.656;2023-03-24T18:06:05;6.77;;;4.17;;
77402;SDS011;66472;53.046;8.656;2023-03-24T18:11:01;4.50;;;4.10;;
77402;SDS011;66472;53.046;8.656;2023-03-24T18:15:57;4.70;;;4.30;;
77402;SDS011;66472;53.046;8.656;2023-03-24T18:20:52;5.67;;;5.27;;
77402;SDS011;66472;53.046;8.656;2023-03-24T18:25:54;5.67;;;5.17;;
77402;SDS011;66472;53.046;8.656;2023-03-24T18:30:50;5.50;;;5.00;;
77402;SDS011;66472;53.046;8.656;2023-03-24T18:35:52;5.20;;;4.80;;
77402;SDS011;66472;53.046;8.656;2023-03-24T18:40:59;5.60;;;5.20;;
77402;SDS011;66472;53.046;8.656;2023-03-24T18:45:55;6.20;;;5.60;;
77402;SDS011;66472;53.046;8.656;2023-03-24T18:50:51;5.43;;;4.93;;
77402;SDS011;66472;53.046;8.656;2023-03-24T18:55:47;5.80;;;5.33;;
77402;SDS011;66472;53.046;8.656;2023-03-24T19:00:47;6.73;;;4.80;;
77402;SDS011;66472;53.046;8.656;2023-03-24T19:05:43;6.07;;;5.10;;
77402;SDS011;66472;53.046;8.656;2023-03-24T19:10:38;5.47;;;5.03;;
77402;SDS011;66472;53.046;8.656;2023-03-24T19:15:33;5.57;;;5.07;;
77402;SDS011;66472;53.046;8.656;2023-03-24T19:20:29;5.53;;;5.13;;
77402;SDS011;66472;53.046;8.656;2023-03-24T19:25:24;6.50;;;5.87;;
77402;SDS011;66472;53.046;8.656;2023-03-24T19:30:20;6.23;;;5.57;;
77402;SDS011;66472;53.046;8.656;2023-03-24T19:35:15;5.57;;;5.07;;
77402;SDS011;66472;53.046;8.656;2023-03-24T19:40:10;6.70;;;6.00;;
77402;SDS011;66472;53.046;8.656;2023-03-24T19:45:07;6.93;;;6.13;;
77402;SDS011;66472;53.046;8.656;2023-03-24T19:50:03;7.60;;;5.87;;
77402;SDS011;66472;53.046;8.656;2023-03-24T19:54:59;7.97;;;6.20;;
77402;SDS011;66472;53.046;8.656;2023-03-24T19:59:55;6.40;;;6.00;;
77402;SDS011;66472;53.046;8.656;2023-03-24T20:04:52;6.90;;;6.30;;
77402;SDS011;66472;53.046;8.656;2023-03-24T20:09:49;6.47;;;5.97;;
77402;SDS011;66472;53.046;8.656;2023-03-24T20:14:44;6.53;;;5.97;;
77402;SDS011;66472;53.046;8.656;2023-03-24T20:19:40;11.23;;;6.57;;
77402;SDS011;66472;53.046;8.656;2023-03-24T20:24:35;7.90;;;5.75;;
77402;SDS011;66472;53.046;8.656;2023-03-24T20:29:33;6.30;;;5.73;;
77402;SDS011;66472;53.046;8.656;2023-03-24T20:34:29;6.83;;;6.23;;
77402;SDS011;66472;53.046;8.656;2023-03-24T20:39:26;9.63;;;7.20;;
77402;SDS011;66472;53.046;8.656;2023-03-24T20:44:21;6.70;;;6.10;;
77402;SDS011;66472;53.046;8.656;2023-03-24T20:49:19;7.50;;;6.90;;
77402;SDS011;66472;53.046;8.656;2023-03-24T20:54:16;6.63;;;6.13;;
77402;SDS011;66472;53.046;8.656;2023-03-24T20:59:11;7.43;;;6.73;;
77402;SDS011;66472;53.046;8.656;2023-03-24T21:04:07;7.60;;;7.00;;
77402;SDS011;66472;53.046;8.656;2023-03-24T21:09:03;6.97;;;6.57;;
77402;SDS011;66472;53.046;8.656;2023-03-24T21:13:59;7.47;;;6.87;;
77402;SDS011;66472;53.046;8.656;2023-03-24T21:18:55;8.73;;;7.93;;
77402;SDS011;66472;53.046;8.656;2023-03-24T21:23:52;8.43;;;7.63;;
77402;SDS011;66472;53.046;8.656;2023-03-24T21:28:50;11.90;;;10.93;;
77402;SDS011;66472;53.046;8.656;2023-03-24T21:33:46;14.40;;;13.13;;
77402;SDS011;66472;53.046;8.656;2023-03-24T21:38:42;16.27;;;15.37;;
77402;SDS011;66472;53.046;8.656;2023-03-24T21:43:37;15.95;;;14.93;;
77402;SDS011;66472;53.046;8.656;2023-03-24T21:48:34;17.33;;;15.67;;
77402;SDS011;66472;53.046;8.656;2023-03-24T21:53:32;16.67;;;15.07;;
77402;SDS011;66472;53.046;8.656;2023-03-24T21:58:31;17.53;;;16.37;;
77402;SDS011;66472;53.046;8.656;2023-03-24T22:03:28;18.30;;;16.70;;
77402;SDS011;66472;53.046;8.656;2023-03-24T22:08:24;18.67;;;17.37;;
77402;SDS011;66472;53.046;8.656;2023-03-24T22:13:25;17.20;;;15.73;;
77402;SDS011;66472;53.046;8.656;2023-03-24T22:18:21;18.67;;;17.33;;
77402;SDS011;66472;53.046;8.656;2023-03-24T22:23:16;17.67;;;15.87;;
77402;SDS011;66472;53.046;8.656;2023-03-24T22:28:13;18.70;;;17.47;;
77402;SDS011;66472;53.046;8.656;2023-03-24T22:33:09;19.30;;;18.03;;
77402;SDS011;66472;53.046;8.656;2023-03-24T22:38:04;19.45;;;18.02;;
77402;SDS011;66472;53.046;8.656;2023-03-24T22:43:08;21.57;;;20.17;;
77402;SDS011;66472;53.046;8.656;2023-03-24T22:48:04;18.93;;;17.73;;
77402;SDS011;66472;53.046;8.656;2023-03-24T22:52:59;20.17;;;18.97;;
77402;SDS011;66472;53.046;8.656;2023-03-24T22:57:55;20.15;;;18.55;;
77402;SDS011;66472;53.046;8.656;2023-03-24T23:02:50;12.43;;;11.40;;
77402;SDS011;66472;53.046;8.656;2023-03-24T23:07:45;11.80;;;11.00;;
77402;SDS011;66472;53.046;8.656;2023-03-24T23:12:41;11.00;;;10.30;;
77402;SDS011;66472;53.046;8.656;2023-03-24T23:17:38;11.80;;;11.00;;
77402;SDS011;66472;53.046;8.656;2023-03-24T23:22:34;12.37;;;11.20;;
77402;SDS011;66472;53.046;8.656;2023-03-24T23:27:32;11.60;;;10.60;;
77402;SDS011;66472;53.046;8.656;2023-03-24T23:32:27;11.60;;;10.53;;
77402;SDS011;66472;53.046;8.656;2023-03-24T23:37:25;11.43;;;10.63;;
77402;SDS011;66472;53.046;8.656;2023-03-24T23:42:22;13.27;;;11.97;;
77402;SDS011;66472;53.046;8.656;2023-03-24T23:47:18;11.97;;;11.23;;
77402;SDS011;66472;53.046;8.656;2023-03-24T23:52:13;11.70;;;10.77;;
77402;SDS011;66472;53.046;8.656;2023-03-24T23:57:08;12.13;;;11.05;;
